Time;durP1;ratioP1;P1;durP2;ratioP2;P2;SDS_P1;SDS_P2;PMS_P1;PMS_P2;Temp;Humidity;BMP_temperature;BMP_pressure;BME280_temperature;BME280_humidity;BME280_pressure;Samples;Min_cycle;Max_cycle;Signal;HPM_P1;HPM_P2
2023/02/24 00:00:31;;;;;;;26.67;6.55;;;;;;;1.07;100.00;101454.28;5072890;28;20025;-79
2023/02/24 00:03:04;;;;;;;;;;;;;;;1.08;100.00;101462.19;5071714;28;20185;-79
2023/02/24 00:05:33;;;;;;;30.23;7.70;;;;;;;1.09;100.00;101463.94;5072736;28;19920;-79
2023/02/24 00:07:58;;;;;;;31.63;7.72;;;;;;;1.04;100.00;101458.50;5072616;28;20023;-82
2023/02/24 00:10:24;;;;;;;32.25;7.70;;;;;;;1.04;100.00;101463.72;5072657;28;20111;-78
2023/02/24 00:12:50;;;;;;;31.00;7.38;;;;;;;1.09;100.00;101457.84;5072844;28;20052;-76
2023/02/24 00:15:15;;;;;;;26.48;6.25;;;;;;;1.03;100.00;101451.53;5071630;28;20028;-76
2023/02/24 00:17:45;;;;;;;29.45;7.22;;;;;;;1.08;100.00;101454.38;5072468;28;20466;-76
2023/02/24 00:20:11;;;;;;;32.30;7.82;;;;;;;1.16;100.00;101455.66;5068776;28;20135;-79
2023/02/24 00:22:40;;;;;;;32.58;7.10;;;;;;;1.27;100.00;101445.81;5072563;28;20552;-78
2023/02/24 00:25:06;;;;;;;29.27;7.10;;;;;;;1.33;100.00;101448.72;5072418;28;20032;-76
2023/02/24 00:27:32;;;;;;;30.92;6.93;;;;;;;1.36;100.00;101433.25;5072811;28;20063;-76
2023/02/24 00:29:57;;;;;;;29.98;6.70;;;;;;;1.44;100.00;101445.75;5072416;28;20399;-79
2023/02/24 00:32:23;;;;;;;32.78;7.25;;;;;;;1.49;100.00;101436.47;5072510;28;20032;-76
2023/02/24 00:34:48;;;;;;;31.02;6.90;;;;;;;1.50;100.00;101435.66;5072575;28;20422;-80
2023/02/24 00:37:22;;;;;;;30.38;7.22;;;;;;;1.53;100.00;101435.78;5071087;28;20107;-83
2023/02/24 00:39:51;;;;;;;29.63;7.20;;;;;;;1.55;100.00;101428.97;5072304;28;20376;-77
2023/02/24 00:42:16;;;;;;;28.83;6.90;;;;;;;1.59;100.00;101436.13;5072253;28;20074;-77
2023/02/24 00:44:46;;;;;;;31.60;7.30;;;;;;;1.69;100.00;101425.34;5072475;28;20422;-77
2023/02/24 00:47:15;;;;;;;28.95;7.13;;;;;;;1.76;100.00;101428.25;5068684;28;20035;-76
2023/02/24 00:49:41;;;;;;;29.40;7.05;;;;;;;1.76;100.00;101428.25;5068679;28;20036;-76
2023/02/24 00:52:18;;;;;;;26.95;7.25;;;;;;;1.88;100.00;101426.25;5072347;28;20123;-76
2023/02/24 00:54:46;;;;;;;30.45;7.28;;;;;;;1.91;100.00;101418.59;5068308;28;20021;-76
2023/02/24 00:57:13;;;;;;;29.00;7.40;;;;;;;1.96;100.00;101417.06;5076023;28;20039;-77
2023/02/24 00:59:39;;;;;;;28.00;6.65;;;;;;;2.03;100.00;101419.16;5072290;28;20020;-76
2023/02/24 01:02:05;;;;;;;28.92;7.35;;;;;;;2.09;100.00;101413.34;5075986;28;20447;-78
2023/02/24 01:04:31;;;;;;;29.55;7.28;;;;;;;2.12;100.00;101413.50;5075848;28;20468;-78
2023/02/24 01:07:00;;;;;;;26.85;6.63;;;;;;;2.16;100.00;101411.94;5076132;28;20036;-77
2023/02/24 01:09:28;;;;;;;25.95;6.97;;;;;;;2.19;100.00;101406.88;5076265;28;20036;-77
2023/02/24 01:14:38;;;;;;;25.73;6.65;;;;;;;2.17;100.00;101395.44;5076029;28;20548;-78
2023/02/24 01:17:06;;;;;;;27.70;6.60;;;;;;;2.20;100.00;101393.88;5075825;28;20036;-77
2023/02/24 01:19:33;;;;;;;25.70;6.18;;;;;;;2.28;100.00;101389.03;5075653;28;20059;-76
2023/02/24 01:22:01;;;;;;;31.15;6.93;;;;;;;2.28;100.00;101389.03;5075609;28;20368;-76
2023/02/24 01:24:29;;;;;;;27.40;6.53;;;;;;;2.32;100.00;101383.13;5075599;28;20036;-76
2023/02/24 01:26:56;;;;;;;24.38;6.60;;;;;;;2.37;100.00;101376.38;5074525;28;20467;-76
2023/02/24 01:29:21;;;;;;;25.10;6.50;;;;;;;2.40;100.00;101381.78;5075475;28;20055;-77
2023/02/24 01:31:49;;;;;;;25.85;6.75;;;;;;;2.39;100.00;101379.97;5075450;28;20021;-78
2023/02/24 01:34:16;;;;;;;27.48;6.90;;;;;;;2.35;100.00;101375.44;5075507;28;20043;-78
2023/02/24 01:36:42;;;;;;;26.35;6.65;;;;;;;2.34;100.00;101368.41;5075332;28;20024;-78
2023/02/24 01:39:09;;;;;;;27.58;6.63;;;;;;;2.37;100.00;101359.84;5075594;28;20526;-76
2023/02/24 01:41:37;;;;;;;26.73;6.18;;;;;;;2.41;100.00;101357.44;5075474;28;20029;-77
2023/02/24 01:44:07;;;;;;;29.55;6.80;;;;;;;2.41;100.00;101359.16;5075260;28;20029;-77
2023/02/24 01:46:35;;;;;;;29.25;7.50;;;;;;;2.39;100.00;101351.28;5075188;28;20108;-77
2023/02/24 01:49:16;;;;;;;25.92;6.53;;;;;;;2.40;100.00;101353.06;5075320;28;20024;-77
2023/02/24 01:51:50;;;;;;;25.08;6.43;;;;;;;2.40;100.00;101340.03;5071963;28;20473;-77
2023/02/24 01:54:19;;;;;;;26.02;6.15;;;;;;;2.36;100.00;101339.78;5067896;28;20024;-77
2023/02/24 01:56:56;;;;;;;24.60;6.13;;;;;;;2.37;100.00;101334.63;5074865;28;20114;-77
2023/02/24 01:59:24;;;;;;;24.60;6.40;;;;;;;2.30;100.00;101331.69;5074943;28;20029;-77
2023/02/24 02:01:53;;;;;;;24.67;5.90;;;;;;;2.24;100.00;101329.69;5075107;28;20020;-77
2023/02/24 02:04:31;;;;;;;27.55;6.28;;;;;;;2.22;100.00;101331.34;5073594;28;20032;-76
2023/02/24 02:06:57;;;;;;;25.23;5.97;;;;;;;2.19;100.00;101323.38;5074760;28;20025;-77
2023/02/24 02:09:24;;;;;;;25.92;6.32;;;;;;;2.16;100.00;101318.03;5073651;28;20498;-76
2023/02/24 02:11:49;;;;;;;26.15;6.32;;;;;;;2.15;100.00;101313.63;5074943;28;20044;-76
2023/02/24 02:14:18;;;;;;;23.75;6.00;;;;;;;2.14;100.00;101306.59;5074693;28;20037;-77
2023/02/24 02:17:24;;;;;;;25.55;6.45;;;;;;;2.11;100.00;101296.91;5074632;28;20425;-77
2023/02/24 02:20:25;;;;;;;23.85;6.45;;;;;;;2.12;100.00;101290.00;5003580;28;20086;-76
2023/02/24 02:23:09;;;;;;;26.13;6.47;;;;;;;2.08;100.00;101282.03;5006465;28;20072;-76
2023/02/24 02:26:11;;;;;;;23.65;6.32;;;;;;;2.07;100.00;101284.59;5063913;28;20091;-76
2023/02/24 02:28:55;;;;;;;24.75;6.40;;;;;;;2.03;100.00;101270.50;5074212;28;20038;-76
2023/02/24 02:31:38;;;;;;;25.48;6.30;;;;;;;2.03;100.00;101274.84;5071879;28;20093;-77
2023/02/24 02:34:07;;;;;;;26.85;6.70;;;;;;;2.05;100.00;101270.56;5074509;28;20044;-77
2023/02/24 02:36:35;;;;;;;24.70;6.40;;;;;;;2.05;100.00;101266.25;5074358;28;20031;-77
2023/02/24 02:39:11;;;;;;;23.70;6.25;;;;;;;2.09;100.00;101273.38;5074119;28;20086;-76
2023/02/24 02:41:45;;;;;;;24.55;6.32;;;;;;;2.01;100.00;101274.75;5074149;28;20024;-76
2023/02/24 02:44:17;;;;;;;22.73;6.18;;;;;;;1.97;100.00;101272.81;5068915;28;20060;-75
2023/02/24 02:46:52;;;;;;;24.60;6.35;;;;;;;1.93;100.00;101260.47;5070728;28;20029;-77
2023/02/24 02:49:29;;;;;;;26.67;6.10;;;;;;;1.88;100.00;101261.97;5071010;28;20032;-77
2023/02/24 02:52:04;;;;;;;24.20;6.05;;;;;;;1.83;100.00;101259.13;5074137;28;20376;-76
2023/02/24 02:54:50;;;;;;;24.20;6.35;;;;;;;1.79;100.00;101253.72;5074134;28;20343;-77
2023/02/24 02:57:22;;;;;;;25.05;6.40;;;;;;;1.69;100.00;101248.09;5070574;28;20031;-78
2023/02/24 02:59:53;;;;;;;23.02;5.97;;;;;;;1.64;100.00;101241.75;5073741;28;20035;-76
2023/02/24 03:02:26;;;;;;;23.10;5.85;;;;;;;1.65;100.00;101251.38;5073893;28;20021;-78
2023/02/24 03:04:55;;;;;;;25.65;6.53;;;;;;;1.64;100.00;101246.97;5073604;28;20052;-76
2023/02/24 03:07:29;;;;;;;26.70;6.00;;;;;;;1.65;100.00;101245.25;5073625;28;20047;-76
2023/02/24 03:10:00;;;;;;;26.08;6.43;;;;;;;1.64;100.00;101248.69;5073508;28;20052;-78
2023/02/24 03:12:29;;;;;;;24.85;6.20;;;;;;;1.63;100.00;101247.81;5073723;28;20025;-77
2023/02/24 03:15:02;;;;;;;23.42;5.82;;;;;;;1.62;100.00;101230.38;5073518;28;20025;-76
2023/02/24 03:17:34;;;;;;;22.17;5.53;;;;;;;1.64;100.00;101239.13;5072427;28;20462;-78
2023/02/24 03:20:16;;;;;;;23.85;5.57;;;;;;;1.67;100.00;101226.25;5073337;28;20037;-79
2023/02/24 03:23:04;;;;;;;24.20;6.00;;;;;;;1.65;100.00;101235.72;5069874;28;20078;-77
2023/02/24 03:25:45;;;;;;;27.45;5.82;;;;;;;1.56;100.00;101228.38;5071564;28;20130;-80
2023/02/24 03:28:34;;;;;;;21.42;5.30;;;;;;;1.47;100.00;101232.25;5069497;28;20032;-77
2023/02/24 03:31:09;;;;;;;24.77;5.47;;;;;;;1.26;100.00;101217.38;5067712;28;20104;-77
2023/02/24 03:33:55;;;;;;;23.10;6.00;;;;;;;1.15;100.00;101223.78;5073278;28;20085;-78
2023/02/24 03:36:22;;;;;;;24.27;5.90;;;;;;;1.03;100.00;101216.25;5070690;28;20032;-76
2023/02/24 03:38:49;;;;;;;24.10;6.00;;;;;;;0.89;100.00;101220.81;5073112;28;20476;-77
2023/02/24 03:41:15;;;;;;;24.33;6.00;;;;;;;0.81;100.00;101214.31;5072995;28;20035;-76
2023/02/24 03:43:45;;;;;;;22.88;5.93;;;;;;;0.75;100.00;101211.41;5073224;28;20394;-76
2023/02/24 03:46:13;;;;;;;26.00;6.28;;;;;;;0.72;100.00;101200.84;5069240;28;20024;-76
2023/02/24 03:48:45;;;;;;;25.38;6.20;;;;;;;0.67;100.00;101193.69;5072887;28;20016;-76
2023/02/24 03:51:17;;;;;;;26.67;5.88;;;;;;;0.64;100.00;101201.34;5068883;28;20043;-76
2023/02/24 03:54:07;;;;;;;22.77;5.85;;;;;;;0.60;100.00;101190.72;5069603;28;20417;-79
2023/02/24 03:56:39;;;;;;;22.00;5.63;;;;;;;0.60;100.00;101190.72;5071933;28;20031;-76
2023/02/24 03:59:18;;;;;;;25.13;6.07;;;;;;;0.51;100.00;101188.53;5072935;28;20025;-77
2023/02/24 04:02:15;;;;;;;23.92;5.57;;;;;;;0.43;100.00;101182.06;5069213;28;20028;-78
2023/02/24 04:05:00;;;;;;;24.38;5.55;;;;;;;0.38;100.00;101187.03;5068852;28;20025;-78
2023/02/24 04:07:51;;;;;;;23.67;5.55;;;;;;;0.30;100.00;101178.81;5070951;28;20464;-76
2023/02/24 04:10:17;;;;;;;23.08;5.63;;;;;;;0.28;100.00;101183.06;5068671;28;20398;-78
2023/02/24 04:13:03;;;;;;;23.90;5.90;;;;;;;0.23;100.00;101178.44;5072595;28;20099;-79
2023/02/24 04:15:36;;;;;;;25.50;6.18;;;;;;;0.16;100.00;101178.13;5071101;28;20070;-77
2023/02/24 04:18:37;;;;;;;24.20;5.70;;;;;;;0.14;100.00;101174.53;5072451;28;20024;-77
2023/02/24 04:21:04;;;;;;;25.77;5.80;;;;;;;0.15;100.00;101168.53;5010704;28;20054;-76
2023/02/24 04:23:37;;;;;;;25.27;5.57;;;;;;;0.24;100.00;101175.03;5072151;28;20150;-77
2023/02/24 04:26:04;;;;;;;25.92;5.88;;;;;;;0.27;100.00;101168.25;5072491;28;20031;-78
2023/02/24 04:28:29;;;;;;;23.55;5.45;;;;;;;0.42;100.00;101170.75;5072438;28;20033;-77
2023/02/24 04:30:59;;;;;;;22.90;5.63;;;;;;;0.47;100.00;101173.59;5072381;28;20082;-76
2023/02/24 04:33:26;;;;;;;24.75;5.70;;;;;;;0.57;100.00;101164.53;5072272;28;20017;-78
2023/02/24 04:35:52;;;;;;;25.52;5.93;;;;;;;0.57;100.00;101162.84;5072535;28;20037;-77
2023/02/24 04:38:18;;;;;;;22.40;5.60;;;;;;;0.65;100.00;101153.69;5071067;28;20036;-76
2023/02/24 04:40:44;;;;;;;24.45;5.60;;;;;;;0.69;100.00;101157.34;5072408;28;20086;-76
2023/02/24 04:43:11;;;;;;;24.55;5.50;;;;;;;0.74;100.00;101160.16;5072498;28;20419;-78
2023/02/24 04:45:39;;;;;;;22.13;5.90;;;;;;;0.79;100.00;101161.31;5071092;28;20028;-76
2023/02/24 04:48:04;;;;;;;23.88;6.10;;;;;;;0.83;100.00;101152.78;5072222;28;20024;-78
2023/02/24 04:50:32;;;;;;;25.48;5.88;;;;;;;0.86;100.00;101153.84;5072400;28;20032;-76
2023/02/24 04:53:10;;;;;;;22.23;5.43;;;;;;;0.90;100.00;101144.47;5072172;28;20033;-76
2023/02/24 04:55:41;;;;;;;22.73;5.35;;;;;;;0.94;100.00;101151.63;5072203;28;20029;-77
2023/02/24 04:58:11;;;;;;;23.80;5.70;;;;;;;0.97;100.00;101146.53;5072098;28;20025;-77
2023/02/24 05:00:40;;;;;;;23.98;5.75;;;;;;;0.98;100.00;101142.25;5072335;28;20412;-76
2023/02/24 05:03:07;;;;;;;22.38;5.55;;;;;;;1.01;100.00;101145.88;5072152;28;20040;-76
2023/02/24 05:05:32;;;;;;;24.65;6.28;;;;;;;1.03;100.00;101144.25;5072050;28;20029;-77
2023/02/24 05:08:05;;;;;;;22.60;5.60;;;;;;;1.05;100.00;101146.94;5072257;28;20036;-78
2023/02/24 05:10:45;;;;;;;24.13;5.97;;;;;;;1.09;100.00;101140.16;5072031;28;20036;-77
2023/02/24 05:13:20;;;;;;;23.42;5.50;;;;;;;1.12;100.00;101132.47;5067954;28;20024;-76
2023/02/24 05:15:49;;;;;;;25.63;5.65;;;;;;;1.15;100.00;101130.00;5068598;28;20032;-76
2023/02/24 05:18:16;;;;;;;23.38;5.60;;;;;;;1.16;100.00;101116.19;5071953;28;20093;-79
2023/02/24 05:23:39;;;;;;;22.23;5.30;;;;;;;1.19;100.00;101100.69;5070442;28;20102;-79
2023/02/24 05:26:09;;;;;;;23.63;5.53;;;;;;;1.16;100.00;101100.56;5071964;28;20017;-79
2023/02/24 05:28:39;;;;;;;23.85;5.55;;;;;;;1.10;100.00;101106.38;5071841;28;20031;-79
2023/02/24 05:31:31;;;;;;;24.50;6.00;;;;;;;1.02;100.00;101095.59;5071830;28;20028;-79
2023/02/24 05:34:02;;;;;;;25.67;6.05;;;;;;;0.98;100.00;101095.38;5063904;28;20511;-79
2023/02/24 05:36:35;;;;;;;22.67;5.57;;;;;;;0.97;100.00;101093.59;5071956;28;20029;-77
2023/02/24 05:39:06;;;;;;;25.10;5.80;;;;;;;1.01;100.00;101090.31;5071975;28;20123;-80
2023/02/24 05:41:34;;;;;;;24.33;5.75;;;;;;;1.02;100.00;101085.19;5074548;28;20352;-76
2023/02/24 05:44:03;;;;;;;24.52;6.22;;;;;;;1.01;100.00;101091.19;5075330;28;20028;-79
2023/02/24 05:46:31;;;;;;;23.67;5.93;;;;;;;1.07;100.00;101084.50;5075667;28;20024;-77
2023/02/24 05:49:00;;;;;;;22.10;5.55;;;;;;;1.10;100.00;101085.53;5075153;28;20096;-76
2023/02/24 05:51:34;;;;;;;25.30;5.90;;;;;;;1.09;100.00;101077.66;5075118;28;20021;-79
2023/02/24 05:54:03;;;;;;;26.05;6.07;;;;;;;1.10;100.00;101082.03;5075012;28;20027;-80
2023/02/24 05:56:31;;;;;;;27.05;6.50;;;;;;;1.08;100.00;101068.03;5075135;28;20094;-76
2023/02/24 05:59:01;;;;;;;24.38;6.40;;;;;;;1.12;100.00;101062.16;5075034;28;20035;-78
2023/02/24 06:01:31;;;;;;;23.13;6.10;;;;;;;1.13;100.00;101058.75;5074908;28;20036;-79
2023/02/24 06:04:04;;;;;;;24.35;6.15;;;;;;;1.16;100.00;101053.69;5075076;28;20430;-76
2023/02/24 06:06:35;;;;;;;23.75;6.05;;;;;;;1.13;100.00;101057.03;5074923;28;20033;-78
2023/02/24 06:09:06;;;;;;;23.38;5.70;;;;;;;1.14;100.00;101042.31;5074707;28;20463;-76
2023/02/24 06:11:33;;;;;;;22.83;5.82;;;;;;;1.14;100.00;101048.41;5074653;28;20074;-76
2023/02/24 06:13:58;;;;;;;23.98;5.88;;;;;;;1.13;100.00;101036.19;5073807;28;20052;-78
2023/02/24 06:16:26;;;;;;;23.98;5.65;;;;;;;1.12;100.00;101039.63;5074593;28;20079;-76
2023/02/24 06:18:52;;;;;;;24.25;6.18;;;;;;;1.05;100.00;101034.97;5074657;28;20037;-75
2023/02/24 06:21:17;;;;;;;22.67;5.82;;;;;;;1.00;100.00;101037.34;5073314;28;20195;-78
2023/02/24 06:23:44;;;;;;;23.13;5.38;;;;;;;0.97;100.00;101031.09;5074552;28;20029;-76
2023/02/24 06:26:11;;;;;;;26.10;5.90;;;;;;;0.91;100.00;101031.72;5074552;28;20029;-76
2023/02/24 06:28:42;;;;;;;23.85;6.07;;;;;;;0.88;100.00;101028.97;5074613;28;20032;-78
2023/02/24 06:31:09;;;;;;;26.63;6.07;;;;;;;0.88;100.00;101025.50;5074370;28;20020;-77
2023/02/24 06:33:35;;;;;;;21.88;5.88;;;;;;;0.86;100.00;101023.69;5065671;28;20541;-75
2023/02/24 06:36:02;;;;;;;25.13;5.70;;;;;;;0.85;100.00;101008.00;5065959;28;20124;-78
2023/02/24 06:38:29;;;;;;;26.05;6.03;;;;;;;0.92;100.00;101007.47;5064956;28;20378;-77
2023/02/24 06:40:59;;;;;;;23.85;5.60;;;;;;;0.97;100.00;101005.06;5068449;28;20025;-76
2023/02/24 06:43:24;;;;;;;23.45;5.82;;;;;;;0.99;100.00;101008.63;5072854;28;20391;-78
2023/02/24 06:45:50;;;;;;;22.08;5.70;;;;;;;1.00;100.00;101005.22;5072422;28;20032;-77
2023/02/24 06:48:15;;;;;;;24.27;5.78;;;;;;;1.02;100.00;101001.88;5070132;28;20489;-79
2023/02/24 06:50:42;;;;;;;23.73;5.82;;;;;;;1.02;100.00;101004.47;5069000;28;20041;-79
2023/02/24 06:53:15;;;;;;;22.38;5.30;;;;;;;1.01;100.00;100994.00;5067594;28;20021;-80
2023/02/24 06:55:45;;;;;;;25.63;6.00;;;;;;;1.02;100.00;100982.72;5073561;28;20463;-76
2023/02/24 06:58:16;;;;;;;23.65;6.03;;;;;;;1.04;100.00;100988.91;5068152;28;20032;-76
2023/02/24 07:00:45;;;;;;;24.98;5.80;;;;;;;1.04;100.00;100991.50;5069324;28;20040;-79
2023/02/24 07:03:15;;;;;;;22.52;5.70;;;;;;;1.07;100.00;100983.84;5063264;28;20110;-76
2023/02/24 07:05:49;;;;;;;25.42;5.68;;;;;;;1.08;100.00;100983.03;5063663;28;20021;-76
2023/02/24 07:08:16;;;;;;;23.30;5.60;;;;;;;1.11;100.00;100988.38;5071155;28;20119;-75
2023/02/24 07:10:42;;;;;;;21.25;5.40;;;;;;;1.12;100.00;100984.03;5070852;28;20032;-76
2023/02/24 07:13:08;;;;;;;23.73;5.40;;;;;;;1.17;100.00;100980.81;5069313;28;20379;-76
2023/02/24 07:15:35;;;;;;;22.75;5.05;;;;;;;1.18;100.00;100974.81;5070946;28;20082;-76
2023/02/24 07:18:02;;;;;;;23.65;5.00;;;;;;;1.20;100.00;100978.34;5064088;28;20069;-77
2023/02/24 07:20:28;;;;;;;24.92;5.07;;;;;;;1.26;100.00;100971.66;5068466;28;20074;-74
2023/02/24 07:22:54;;;;;;;22.65;4.90;;;;;;;1.28;100.00;100955.28;5066095;28;20033;-76
2023/02/24 07:25:32;;;;;;;21.77;4.97;;;;;;;1.33;100.00;100963.28;5069310;28;20510;-77
2023/02/24 07:28:00;;;;;;;21.83;4.70;;;;;;;1.35;100.00;100957.28;5066982;28;20055;-76
2023/02/24 07:30:31;;;;;;;22.90;4.93;;;;;;;1.40;100.00;100954.91;5068075;28;20543;-75
2023/02/24 07:32:57;;;;;;;21.25;4.63;;;;;;;1.43;100.00;100954.13;5065709;28;20035;-75
2023/02/24 07:35:23;;;;;;;20.83;4.32;;;;;;;1.49;100.00;100963.09;5065423;28;20033;-75
2023/02/24 07:37:49;;;;;;;23.02;4.57;;;;;;;1.52;100.00;100965.84;5070323;28;20425;-78
2023/02/24 07:40:17;;;;;;;24.27;4.85;;;;;;;1.58;100.00;100965.22;5066128;28;20086;-75
2023/02/24 07:42:43;;;;;;;21.88;4.78;;;;;;;1.59;100.00;100961.81;5068786;28;20040;-77
2023/02/24 07:45:09;;;;;;;22.35;4.93;;;;;;;1.63;100.00;100974.13;5071043;28;20029;-78
2023/02/24 07:47:35;;;;;;;20.83;4.70;;;;;;;1.67;100.00;100969.94;5067941;28;20370;-75
2023/02/24 07:50:01;;;;;;;21.85;4.68;;;;;;;1.71;100.00;100962.31;5066398;28;20024;-76
2023/02/24 07:52:31;;;;;;;22.17;4.22;;;;;;;1.76;100.00;100953.78;5073281;28;20029;-77
2023/02/24 07:54:57;;;;;;;20.55;4.10;;;;;;;1.80;100.00;100940.06;5072166;28;20068;-76
2023/02/24 07:57:24;;;;;;;21.05;4.38;;;;;;;1.86;100.00;100949.00;5066320;28;20481;-77
2023/02/24 07:59:49;;;;;;;21.42;4.30;;;;;;;1.93;100.00;100939.72;5067352;28;20028;-77
2023/02/24 08:02:15;;;;;;;23.05;4.30;;;;;;;1.98;100.00;100933.00;5069946;28;20089;-77
2023/02/24 08:04:47;;;;;;;21.95;4.00;;;;;;;2.06;100.00;100923.75;5073238;28;20020;-75
2023/02/24 08:07:13;;;;;;;22.42;4.45;;;;;;;2.12;100.00;100917.91;5063882;28;20032;-75
2023/02/24 08:12:20;;;;;;;20.83;4.10;;;;;;;2.29;100.00;100920.28;5064368;28;20094;-76
2023/02/24 08:14:49;;;;;;;21.95;4.22;;;;;;;2.32;100.00;100900.41;5064089;28;20036;-76
2023/02/24 08:17:18;;;;;;;21.63;3.90;;;;;;;2.32;100.00;100897.81;5066208;28;20119;-76
2023/02/24 08:19:46;;;;;;;17.90;3.70;;;;;;;2.35;100.00;100890.09;5066458;28;20027;-77
2023/02/24 08:22:18;;;;;;;21.90;4.28;;;;;;;2.38;100.00;100900.66;5066576;28;20036;-77
2023/02/24 08:24:49;;;;;;;22.23;3.92;;;;;;;2.39;100.00;100892.00;5069239;28;20079;-79
2023/02/24 08:27:19;;;;;;;20.65;4.00;;;;;;;2.44;100.00;100902.63;5063980;28;20055;-77
2023/02/24 08:29:58;;;;;;;20.33;3.90;;;;;;;2.47;100.00;100894.00;5068868;28;20048;-78
2023/02/24 08:32:32;;;;;;;22.35;4.32;;;;;;;2.54;100.00;100891.69;5064722;28;20386;-77
2023/02/24 08:35:01;;;;;;;20.85;3.97;;;;;;;2.65;100.00;100885.97;5068521;28;20048;-80
2023/02/24 08:37:32;;;;;;;21.88;4.15;;;;;;;2.70;100.00;100877.50;5072279;28;20498;-79
2023/02/24 08:39:58;;;;;;;20.40;3.90;;;;;;;2.78;100.00;100873.44;5072328;28;20083;-77
2023/02/24 08:42:29;;;;;;;19.52;4.10;;;;;;;2.86;100.00;100881.56;5072525;28;20383;-78
2023/02/24 08:44:57;;;;;;;22.45;4.40;;;;;;;2.92;100.00;100876.53;5072462;28;20033;-79
2023/02/24 08:47:29;;;;;;;21.40;3.90;;;;;;;2.99;100.00;100888.09;5071027;28;20115;-79
2023/02/24 08:49:58;;;;;;;20.60;4.32;;;;;;;3.03;100.00;100871.72;5072176;28;20025;-76
2023/02/24 08:52:26;;;;;;;21.50;4.18;;;;;;;3.08;100.00;100869.25;5072360;28;20029;-79
2023/02/24 08:54:57;;;;;;;20.40;4.15;;;;;;;3.14;100.00;100874.69;5072251;28;20090;-79
2023/02/24 08:57:24;;;;;;;19.50;3.83;;;;;;;3.22;100.00;100867.13;5072030;28;20029;-79
2023/02/24 08:59:56;;;;;;;20.30;3.88;;;;;;;3.22;100.00;100856.66;5072576;28;20041;-79
2023/02/24 09:02:26;;;;;;;21.58;4.13;;;;;;;3.21;100.00;100854.91;5072045;28;20025;-79
2023/02/24 09:04:55;;;;;;;20.75;3.83;;;;;;;3.06;100.00;100844.78;5072015;28;20056;-79
2023/02/24 09:07:25;;;;;;;19.92;3.80;;;;;;;2.78;100.00;100833.38;5072140;28;20503;-80
2023/02/24 09:09:55;;;;;;;19.13;3.90;;;;;;;2.61;100.00;100833.66;5072157;28;20048;-80
2023/02/24 09:12:27;;;;;;;23.05;4.00;;;;;;;2.49;100.00;100829.72;5072101;28;20149;-79
2023/02/24 09:15:00;;;;;;;20.85;3.95;;;;;;;2.47;100.00;100829.66;5072539;28;20028;-80
2023/02/24 09:23:06;;;;;;;21.50;4.35;;;;;;;2.44;100.00;100801.72;5075452;28;20091;-78
2023/02/24 09:25:39;;;;;;;21.88;4.50;;;;;;;2.47;100.00;100800.94;5075786;28;20123;-79
2023/02/24 09:28:15;;;;;;;23.73;4.78;;;;;;;2.63;100.00;100789.34;5071626;28;20111;-78
2023/02/24 09:30:52;;;;;;;22.67;4.80;;;;;;;2.82;100.00;100800.44;5072489;28;20028;-79
2023/02/24 09:33:37;;;;;;;23.98;4.90;;;;;;;3.13;100.00;100800.66;5075590;28;20026;-78
2023/02/24 09:36:26;;;;;;;23.52;5.13;;;;;;;3.41;100.00;100787.66;5075442;28;20036;-78
2023/02/24 09:44:43;;;;;;;22.77;4.80;;;;;;;3.65;100.00;100790.13;5074111;28;20539;-79
2023/02/24 09:47:38;;;;;;;21.85;4.50;;;;;;;3.64;100.00;100767.44;5067623;28;20120;-80
2023/02/24 09:50:12;;;;;;;21.63;4.60;;;;;;;3.66;100.00;100777.09;5075175;28;20071;-79
2023/02/24 09:52:40;;;;;;;21.08;4.50;;;;;;;3.64;100.00;100759.59;5071552;28;20118;-78
2023/02/24 09:55:45;;;;;;;22.17;4.50;;;;;;;3.68;100.00;100774.53;5071415;28;20475;-77
2023/02/24 09:58:28;;;;;;;22.20;4.57;;;;;;;3.72;100.00;100771.19;5071787;28;20024;-77
2023/02/24 10:01:29;;;;;;;23.80;4.90;;;;;;;3.78;100.00;100758.28;5075049;28;20028;-78
2023/02/24 10:04:26;;;;;;;20.98;4.57;;;;;;;3.90;100.00;100756.91;5045561;28;20033;-77
2023/02/24 10:07:01;;;;;;;21.70;4.70;;;;;;;3.98;100.00;100753.66;5070281;28;20028;-77
2023/02/24 10:09:36;;;;;;;21.33;4.57;;;;;;;4.03;100.00;100751.19;5074712;28;20471;-78
2023/02/24 10:12:17;;;;;;;22.38;5.05;;;;;;;4.10;100.00;100747.91;5074533;28;20020;-77
2023/02/24 10:15:17;;;;;;;21.70;4.63;;;;;;;4.11;100.00;100752.31;5074561;28;20151;-77
2023/02/24 10:17:46;;;;;;;20.45;4.80;;;;;;;4.07;100.00;100739.97;5074040;28;20048;-77
2023/02/24 10:20:38;;;;;;;22.80;4.50;;;;;;;4.07;100.00;100745.22;5074592;28;20040;-78
2023/02/24 10:23:50;;;;;;;19.70;4.20;;;;;;;4.04;100.00;100752.97;5072935;28;20044;-78
2023/02/24 10:26:31;;;;;;;19.48;4.78;;;;;;;3.92;100.00;100748.25;5070771;28;20068;-78
2023/02/24 10:29:17;;;;;;;22.40;5.00;;;;;;;3.94;100.00;100737.84;5074520;28;20031;-78
2023/02/24 10:31:46;;;;;;;21.08;4.80;;;;;;;4.02;100.00;100731.13;5073265;28;20033;-77
2023/02/24 10:34:18;;;;;;;20.90;5.00;;;;;;;4.07;100.00;100747.81;5074587;28;20021;-77
2023/02/24 10:36:49;;;;;;;23.75;5.25;;;;;;;4.13;100.00;100726.19;5074353;28;20028;-77
2023/02/24 10:39:25;;;;;;;20.50;5.18;;;;;;;4.22;100.00;100729.06;5074543;28;20040;-77
2023/02/24 10:41:58;;;;;;;22.58;5.10;;;;;;;4.21;100.00;100734.25;5070894;28;20057;-78
2023/02/24 10:44:34;;;;;;;22.85;5.07;;;;;;;4.31;100.00;100715.34;5074463;28;20016;-77
2023/02/24 10:47:10;;;;;;;22.58;5.45;;;;;;;4.45;100.00;100728.81;5074402;28;20025;-78
2023/02/24 10:50:11;;;;;;;21.35;5.20;;;;;;;4.54;100.00;100723.81;5074047;28;20025;-77
2023/02/24 10:55:27;;;;;;;22.77;5.65;;;;;;;4.58;100.00;100716.97;5071014;28;20028;-78
2023/02/24 10:58:14;;;;;;;18.35;5.10;;;;;;;4.61;100.00;100710.06;5073878;28;20048;-78
2023/02/24 11:04:00;;;;;;;20.50;5.18;;;;;;;4.56;100.00;100716.00;5008133;28;20053;-77
2023/02/24 11:18:01;;;;;;;22.52;6.15;;;;;;;4.59;100.00;100684.66;5067399;28;20129;-78
2023/02/24 11:20:34;;;;;;;21.60;5.88;;;;;;;4.57;100.00;100676.78;5069923;28;20024;-81
2023/02/24 11:23:08;;;;;;;22.00;6.28;;;;;;;4.56;100.00;100674.13;5069417;28;20044;-79
2023/02/24 11:25:40;;;;;;;21.48;5.68;;;;;;;4.59;100.00;100664.63;5077802;28;20028;-78
2023/02/24 11:28:38;;;;;;;21.55;6.28;;;;;;;4.64;100.00;100668.22;5066482;28;20426;-81
2023/02/24 11:31:20;;;;;;;22.75;6.70;;;;;;;4.59;100.00;100666.34;5068248;28;20025;-78
2023/02/24 11:33:51;;;;;;;21.55;6.57;;;;;;;4.56;100.00;100664.56;5067404;28;20078;-80
2023/02/24 11:36:40;;;;;;;22.27;6.53;;;;;;;4.61;100.00;100654.19;5067673;28;20528;-79
2023/02/24 11:39:34;;;;;;;24.58;6.68;;;;;;;4.54;100.00;100642.66;5067005;28;20142;-80
2023/02/24 11:42:07;;;;;;;22.67;6.45;;;;;;;4.45;100.00;100648.53;5072408;28;20025;-79
2023/02/24 11:44:38;;;;;;;22.38;7.03;;;;;;;4.48;100.00;100646.00;5067040;28;20055;-79
2023/02/24 11:47:12;;;;;;;22.77;6.35;;;;;;;4.37;100.00;100647.47;5073113;28;20029;-79
2023/02/24 11:49:47;;;;;;;23.13;6.40;;;;;;;4.31;100.00;100622.03;5069687;28;20105;-80
2023/02/24 11:52:19;;;;;;;22.58;6.90;;;;;;;4.28;100.00;100641.97;5071192;28;20021;-77
2023/02/24 11:54:53;;;;;;;23.15;7.15;;;;;;;4.26;100.00;100626.25;5072137;28;20037;-79
2023/02/24 11:57:27;;;;;;;23.67;7.45;;;;;;;4.29;100.00;100628.94;5069530;28;20111;-78
2023/02/24 12:00:13;;;;;;;24.45;6.72;;;;;;;4.31;100.00;100637.72;5064883;28;20028;-78
2023/02/24 12:03:11;;;;;;;22.40;6.90;;;;;;;4.37;100.00;100610.84;5068085;28;20017;-78
2023/02/24 12:05:42;;;;;;;23.38;7.43;;;;;;;4.21;100.00;100635.72;5070213;28;20021;-79
2023/02/24 12:08:27;;;;;;;22.40;6.80;;;;;;;4.09;100.00;100625.81;5063610;28;20063;-79
2023/02/24 12:11:16;;;;;;;24.10;7.80;;;;;;;3.97;100.00;100625.47;5070299;28;20021;-78
2023/02/24 12:13:55;;;;;;;23.67;8.10;;;;;;;3.94;100.00;100615.78;5065829;28;20056;-78
2023/02/24 12:16:27;;;;;;;24.25;8.52;;;;;;;3.86;100.00;100611.19;5065040;28;20060;-78
2023/02/24 12:19:12;;;;;;;25.30;8.30;;;;;;;3.91;100.00;100596.53;5066559;28;20040;-78